createdAt,value
2019-03-20T00:02:19.064Z,3.20
2019-03-20T00:04:49.879Z,3.20
2019-03-20T00:07:16.676Z,3.10
2019-03-20T00:09:44.270Z,3.00
2019-03-20T00:12:12.216Z,2.90
2019-03-20T00:14:40.197Z,2.90
2019-03-20T00:17:08.069Z,2.90
2019-03-20T00:19:35.643Z,3.00
2019-03-20T00:22:03.930Z,3.10
2019-03-20T00:24:31.892Z,3.10
2019-03-20T00:26:59.505Z,3.20
2019-03-20T00:29:27.058Z,3.10
2019-03-20T00:31:54.930Z,3.20
2019-03-20T00:34:22.459Z,3.10
2019-03-20T00:36:50.049Z,3.20
2019-03-20T00:39:17.638Z,3.10
2019-03-20T00:41:45.168Z,3.00
2019-03-20T00:44:13.339Z,2.90
2019-03-20T00:46:41.238Z,2.80
2019-03-20T00:49:08.853Z,2.80
2019-03-20T00:51:37.567Z,2.70
2019-03-20T00:54:05.185Z,2.70
2019-03-20T00:56:32.777Z,2.60
2019-03-20T00:59:00.704Z,2.40
2019-03-20T01:01:28.231Z,2.40
2019-03-20T01:03:55.878Z,2.40
2019-03-20T01:06:23.870Z,2.40
2019-03-20T01:08:51.651Z,2.50
2019-03-20T01:11:19.267Z,2.60
2019-03-20T01:13:46.883Z,2.60
2019-03-20T01:16:14.833Z,2.60
2019-03-20T01:18:43.060Z,2.70
2019-03-20T01:21:10.990Z,2.60
2019-03-20T01:23:38.855Z,2.50
2019-03-20T01:26:06.556Z,2.50
2019-03-20T01:28:34.135Z,2.40
2019-03-20T01:31:01.747Z,2.40
2019-03-20T01:33:29.360Z,2.40
2019-03-20T01:35:56.945Z,2.20
2019-03-20T01:38:24.762Z,2.10
2019-03-20T01:40:52.405Z,2.00
2019-03-20T01:43:20.002Z,1.90
2019-03-20T01:45:47.615Z,1.80
2019-03-20T01:48:15.182Z,1.80
2019-03-20T01:50:43.084Z,1.70
2019-03-20T01:53:10.704Z,1.50
2019-03-20T01:55:38.628Z,1.50
2019-03-20T01:58:06.226Z,1.50
2019-03-20T02:00:34.376Z,1.50
2019-03-20T02:03:02.683Z,1.50
2019-03-20T02:05:35.804Z,1.50
2019-03-20T02:07:59.720Z,1.40
2019-03-20T02:10:27.356Z,1.40
2019-03-20T02:12:55.222Z,1.40
2019-03-20T02:15:23.029Z,1.40
2019-03-20T02:17:50.950Z,1.50
2019-03-20T02:20:18.960Z,1.60
2019-03-20T02:22:46.508Z,1.60
2019-03-20T02:25:15.358Z,1.70
2019-03-20T02:27:43.905Z,1.60
2019-03-20T02:30:14.272Z,1.60
2019-03-20T02:32:42.313Z,1.60
2019-03-20T02:35:10.721Z,1.60
2019-03-20T02:37:38.324Z,1.60
2019-03-20T02:40:06.611Z,1.70
2019-03-20T02:42:34.825Z,1.60
2019-03-20T02:45:02.495Z,1.60
2019-03-20T02:47:30.036Z,1.50
2019-03-20T02:49:57.645Z,1.50
2019-03-20T02:52:25.386Z,1.40
2019-03-20T02:54:53.311Z,1.30
2019-03-20T02:57:21.219Z,1.30
2019-03-20T02:59:48.808Z,1.20
2019-03-20T03:02:16.502Z,1.10
2019-03-20T03:04:44.102Z,0.90
2019-03-20T03:07:11.794Z,0.70
2019-03-20T03:09:39.442Z,0.60
2019-03-20T03:17:31.507Z,0.60
2019-03-20T03:19:58.886Z,0.80
2019-03-20T03:22:26.425Z,0.90
2019-03-20T03:24:54.163Z,0.90
2019-03-20T03:27:21.697Z,0.90
2019-03-20T03:29:49.181Z,0.90
2019-03-20T03:32:16.970Z,0.80
2019-03-20T03:34:44.789Z,0.80
2019-03-20T03:37:12.611Z,0.60
2019-03-20T03:39:40.543Z,0.50
2019-03-20T03:42:08.078Z,0.40
2019-03-20T03:44:35.879Z,0.30
2019-03-20T03:47:03.420Z,0.30
2019-03-20T03:49:30.935Z,0.20
2019-03-20T03:51:58.726Z,0.10
2019-03-20T03:54:26.464Z,0.10
2019-03-20T03:56:54.290Z,0.10
2019-03-20T03:59:21.787Z,0.10
2019-03-20T04:01:49.570Z,0.10
2019-03-20T04:04:17.066Z,0.10
2019-03-20T04:06:44.919Z,0.10
2019-03-20T04:09:12.805Z,0.00
2019-03-20T04:11:40.388Z,0.00
2019-03-20T04:14:08.451Z,-0.10
2019-03-20T04:16:36.506Z,-0.20
2019-03-20T04:19:04.015Z,-0.20
2019-03-20T04:21:31.568Z,-0.10
2019-03-20T04:23:59.371Z,0.00
2019-03-20T04:26:26.900Z,0.00
2019-03-20T04:28:54.473Z,0.00
2019-03-20T04:31:22.244Z,0.10
2019-03-20T04:33:49.742Z,0.10
2019-03-20T04:36:17.204Z,0.30
2019-03-20T04:38:45.025Z,0.40
2019-03-20T04:41:12.825Z,0.40
2019-03-20T04:43:40.870Z,0.40
2019-03-20T04:46:08.417Z,0.40
2019-03-20T04:48:35.922Z,0.30
2019-03-20T04:51:03.367Z,0.30
2019-03-20T04:53:31.170Z,0.30
2019-03-20T04:55:59.252Z,0.30
2019-03-20T04:58:27.759Z,0.30
2019-03-20T05:00:55.355Z,0.40
2019-03-20T05:03:23.408Z,0.30
2019-03-20T05:05:51.009Z,0.30
2019-03-20T05:08:18.404Z,0.30
2019-03-20T05:10:46.152Z,0.20
2019-03-20T05:13:14.109Z,0.10
2019-03-20T05:15:41.601Z,0.00
2019-03-20T05:18:09.138Z,-0.10
2019-03-20T05:20:37.192Z,-0.20
2019-03-20T05:23:04.731Z,-0.10
2019-03-20T05:25:32.181Z,-0.20
2019-03-20T05:28:00.063Z,-0.20
2019-03-20T05:30:27.635Z,-0.20
2019-03-20T05:32:55.881Z,-0.20
2019-03-20T05:35:23.429Z,-0.30
2019-03-20T05:37:51.064Z,-0.30
2019-03-20T05:40:18.746Z,-0.30
2019-03-20T05:42:46.392Z,-0.20
2019-03-20T05:45:13.973Z,-0.30
2019-03-20T05:47:41.534Z,-0.30
2019-03-20T05:50:10.070Z,-0.20
2019-03-20T05:52:37.960Z,-0.20
2019-03-20T05:55:05.562Z,-0.10
2019-03-20T05:57:33.142Z,0.00
2019-03-20T06:00:00.696Z,0.10
2019-03-20T06:02:28.344Z,0.20
2019-03-20T06:04:56.214Z,0.30
2019-03-20T06:07:23.742Z,0.40
2019-03-20T06:09:51.674Z,0.50
2019-03-20T06:12:19.210Z,0.60
2019-03-20T06:14:46.744Z,0.50
2019-03-20T06:17:14.275Z,0.60
2019-03-20T06:19:42.017Z,0.70
2019-03-20T06:22:09.571Z,0.80
2019-03-20T06:24:37.114Z,0.80
2019-03-20T06:27:05.106Z,0.90
2019-03-20T06:29:32.713Z,0.90
2019-03-20T06:32:00.674Z,0.90
2019-03-20T06:34:28.914Z,0.90
2019-03-20T06:36:56.685Z,1.00
2019-03-20T06:39:24.532Z,1.10
2019-03-20T06:41:52.482Z,1.10
2019-03-20T06:44:20.402Z,1.30
2019-03-20T06:46:48.293Z,1.60
2019-03-20T06:49:16.140Z,2.00
2019-03-20T06:51:43.882Z,2.40
2019-03-20T06:54:12.039Z,2.70
2019-03-20T06:56:39.610Z,3.00
2019-03-20T07:00:10.335Z,3.30
2019-03-20T07:02:45.986Z,3.60
2019-03-20T07:05:50.677Z,4.10
2019-03-20T07:08:20.378Z,4.50
2019-03-20T07:11:15.426Z,4.80
2019-03-20T07:13:43.307Z,5.20
2019-03-20T07:16:10.910Z,5.60
2019-03-20T07:18:38.987Z,5.80
2019-03-20T07:21:06.530Z,5.90
2019-03-20T07:23:34.410Z,6.10
2019-03-20T07:26:02.388Z,6.00
2019-03-20T07:28:30.025Z,6.20
2019-03-20T07:30:57.917Z,6.10
2019-03-20T07:33:25.860Z,6.10
2019-03-20T07:36:23.970Z,6.10
2019-03-20T07:38:51.619Z,6.20
2019-03-20T07:41:19.359Z,6.70
2019-03-20T07:43:47.328Z,7.20
2019-03-20T07:46:14.992Z,7.70
2019-03-20T07:48:42.943Z,8.00
2019-03-20T07:51:10.582Z,8.10
2019-03-20T07:53:38.545Z,8.30
2019-03-20T07:56:06.187Z,8.20
2019-03-20T07:58:33.909Z,8.30
2019-03-20T08:01:01.507Z,8.60
2019-03-20T08:03:29.463Z,8.70
2019-03-20T08:05:57.083Z,8.80
2019-03-20T08:08:25.566Z,8.90
2019-03-20T08:10:53.224Z,9.10
2019-03-20T08:13:21.564Z,9.00
2019-03-20T08:15:49.578Z,9.00
2019-03-20T08:18:17.262Z,9.20
2019-03-20T08:20:44.903Z,9.20
2019-03-20T08:23:12.910Z,9.30
2019-03-20T08:25:40.493Z,9.40
2019-03-20T08:28:08.193Z,9.50
2019-03-20T08:30:36.121Z,9.80
2019-03-20T08:33:03.818Z,9.80
2019-03-20T08:35:31.788Z,9.40
2019-03-20T08:37:59.740Z,9.60
2019-03-20T08:40:27.741Z,9.60
2019-03-20T08:42:55.653Z,9.90
2019-03-20T08:45:23.336Z,9.70
2019-03-20T08:47:50.988Z,9.80
2019-03-20T08:50:19.030Z,10.10
2019-03-20T08:52:47.029Z,10.20
2019-03-20T08:55:14.920Z,10.30
2019-03-20T08:57:42.574Z,10.40
2019-03-20T09:00:13.309Z,10.40
2019-03-20T09:02:41.274Z,10.50
2019-03-20T09:05:09.445Z,10.50
2019-03-20T09:07:46.841Z,10.50
2019-03-20T09:10:12.228Z,10.30
2019-03-20T09:12:40.223Z,10.20
2019-03-20T09:15:09.198Z,10.10
2019-03-20T09:17:37.169Z,10.00
2019-03-20T09:20:05.683Z,9.80
2019-03-20T09:22:33.318Z,9.60
2019-03-20T09:25:01.272Z,9.60
2019-03-20T09:27:28.887Z,9.60
2019-03-20T09:29:56.961Z,9.30
2019-03-20T09:32:25.564Z,9.30
2019-03-20T09:34:53.851Z,9.50
2019-03-20T09:37:21.533Z,9.50
2019-03-20T09:39:49.895Z,9.50
2019-03-20T09:42:17.799Z,9.60
2019-03-20T09:44:45.491Z,9.70
2019-03-20T09:47:13.442Z,9.70
2019-03-20T09:49:41.109Z,9.60
2019-03-20T09:52:08.787Z,9.70
2019-03-20T09:54:37.104Z,9.70
2019-03-20T09:57:05.884Z,9.60
2019-03-20T09:59:33.520Z,9.70
2019-03-20T10:02:02.868Z,9.70
2019-03-20T10:04:30.570Z,9.80
2019-03-20T10:06:58.194Z,9.80
2019-03-20T10:09:26.129Z,9.90
2019-03-20T10:11:54.067Z,9.90
2019-03-20T10:14:21.750Z,10.00
2019-03-20T10:16:49.375Z,10.10
2019-03-20T10:19:17.072Z,10.20
2019-03-20T10:21:44.740Z,10.30
2019-03-20T10:24:13.032Z,10.20
2019-03-20T10:26:40.711Z,10.30
2019-03-20T10:29:08.717Z,10.20
2019-03-20T10:31:36.779Z,10.20
2019-03-20T10:34:04.712Z,10.30
2019-03-20T10:36:32.343Z,10.30
2019-03-20T10:39:06.340Z,10.30
2019-03-20T10:41:30.483Z,10.30
2019-03-20T10:43:58.115Z,10.40
2019-03-20T10:46:26.119Z,10.40
2019-03-20T10:48:56.173Z,10.50
2019-03-20T10:51:23.152Z,10.60
2019-03-20T10:53:51.129Z,10.60
2019-03-20T10:56:19.213Z,10.40
2019-03-20T10:58:46.851Z,10.50
2019-03-20T11:01:14.545Z,10.60
2019-03-20T11:03:42.442Z,10.60
2019-03-20T11:06:10.393Z,10.70
2019-03-20T11:08:37.998Z,10.70
2019-03-20T11:11:05.980Z,10.80
2019-03-20T11:13:33.586Z,10.80
2019-03-20T11:16:01.222Z,10.80
2019-03-20T11:18:28.868Z,10.80
2019-03-20T11:20:57.127Z,10.90
2019-03-20T11:23:25.024Z,11.00
2019-03-20T11:25:52.966Z,11.10
2019-03-20T11:28:20.933Z,11.20
2019-03-20T11:30:48.568Z,11.30
2019-03-20T11:33:16.522Z,11.30
2019-03-20T11:35:44.747Z,11.20
2019-03-20T11:38:12.390Z,11.30
2019-03-20T11:40:40.335Z,11.30
2019-03-20T11:43:08.600Z,11.40
2019-03-20T11:45:37.130Z,11.50
2019-03-20T11:48:04.824Z,11.60
2019-03-20T11:50:34.866Z,11.70
2019-03-20T11:53:03.021Z,11.70
2019-03-20T11:55:30.742Z,11.70
2019-03-20T11:57:58.376Z,11.60
2019-03-20T12:00:27.052Z,11.60
2019-03-20T12:02:54.972Z,11.60
2019-03-20T12:05:22.619Z,11.60
2019-03-20T12:07:50.528Z,11.60
2019-03-20T12:10:19.640Z,11.70
2019-03-20T12:12:47.553Z,11.80
2019-03-20T12:15:15.330Z,11.90
2019-03-20T12:17:43.336Z,11.90
2019-03-20T12:20:13.355Z,11.90
2019-03-20T12:22:41.030Z,12.00
2019-03-20T12:25:11.156Z,12.20
2019-03-20T12:27:38.759Z,12.30
2019-03-20T12:30:09.150Z,12.00
2019-03-20T12:32:36.869Z,12.20
2019-03-20T12:35:06.597Z,12.30
2019-03-20T12:37:34.693Z,12.30
2019-03-20T12:40:02.854Z,12.40
2019-03-20T12:42:30.552Z,12.40
2019-03-20T12:44:58.901Z,12.50
2019-03-20T12:47:26.578Z,12.60
2019-03-20T12:49:54.951Z,12.60
2019-03-20T12:52:22.573Z,12.60
2019-03-20T12:54:50.154Z,12.70
2019-03-20T12:57:18.073Z,12.70
2019-03-20T12:59:45.696Z,12.80
2019-03-20T13:02:13.587Z,12.90
2019-03-20T13:04:41.177Z,12.90
2019-03-20T13:07:09.113Z,12.90
2019-03-20T13:09:36.776Z,13.00
2019-03-20T13:12:04.776Z,12.90
2019-03-20T13:14:32.697Z,12.90
2019-03-20T13:17:00.268Z,12.80
2019-03-20T13:19:28.490Z,13.00
2019-03-20T13:21:56.112Z,13.00
2019-03-20T13:24:24.123Z,13.10
2019-03-20T13:26:52.035Z,13.10
2019-03-20T13:29:19.946Z,13.10
2019-03-20T13:31:47.553Z,13.00
2019-03-20T13:34:15.465Z,13.00
2019-03-20T13:36:45.006Z,13.10
2019-03-20T13:39:12.964Z,13.00
2019-03-20T13:41:40.575Z,12.90
2019-03-20T13:44:08.299Z,12.90
2019-03-20T13:46:36.049Z,12.70
2019-03-20T13:49:03.686Z,12.30
2019-03-20T13:51:31.554Z,12.50
2019-03-20T13:53:59.117Z,12.60
2019-03-20T13:56:27.089Z,12.90
2019-03-20T13:58:54.668Z,13.00
2019-03-20T14:01:22.288Z,12.90
2019-03-20T14:03:50.161Z,13.00
2019-03-20T14:06:17.799Z,13.20
2019-03-20T14:08:45.399Z,13.40
2019-03-20T14:11:13.324Z,13.10
2019-03-20T14:13:41.242Z,13.30
2019-03-20T14:16:08.852Z,13.10
2019-03-20T14:18:36.730Z,13.30
2019-03-20T14:21:04.681Z,12.90
2019-03-20T14:23:32.323Z,13.00
2019-03-20T14:26:00.304Z,12.50
2019-03-20T14:28:28.505Z,12.60
2019-03-20T14:30:56.182Z,12.80
2019-03-20T14:33:23.905Z,13.00
2019-03-20T14:35:51.549Z,13.10
2019-03-20T14:38:19.170Z,13.00
2019-03-20T14:40:47.141Z,12.70
2019-03-20T14:43:14.797Z,12.90
2019-03-20T14:45:42.492Z,13.10
2019-03-20T14:48:10.146Z,13.00
2019-03-20T14:50:38.262Z,13.10
2019-03-20T14:53:06.227Z,13.20
2019-03-20T14:55:33.858Z,13.40
2019-03-20T14:58:02.595Z,13.50
2019-03-20T15:00:30.273Z,13.50
2019-03-20T15:02:58.001Z,13.50
2019-03-20T15:05:25.962Z,13.50
2019-03-20T15:07:54.030Z,13.40
2019-03-20T15:10:21.682Z,13.30
2019-03-20T15:12:49.606Z,13.20
2019-03-20T15:15:20.570Z,13.30
2019-03-20T15:17:48.509Z,13.30
2019-03-20T15:20:16.079Z,13.10
2019-03-20T15:22:44.673Z,13.00
2019-03-20T15:25:12.417Z,12.80
2019-03-20T15:27:40.143Z,12.70
2019-03-20T15:30:10.366Z,12.80
2019-03-20T15:32:38.329Z,12.90
2019-03-20T15:35:06.811Z,12.90
2019-03-20T15:37:34.517Z,12.90
2019-03-20T15:40:02.485Z,12.90
2019-03-20T15:42:30.150Z,12.60
2019-03-20T15:44:57.834Z,12.50
2019-03-20T15:47:25.506Z,12.30
2019-03-20T15:49:53.135Z,12.20
2019-03-20T15:52:21.151Z,11.90
2019-03-20T15:54:49.053Z,11.90
2019-03-20T15:57:17.037Z,11.80
2019-03-20T15:59:44.928Z,11.70
2019-03-20T16:02:13.354Z,11.60
2019-03-20T16:04:41.022Z,11.60
2019-03-20T16:07:09.318Z,11.60
2019-03-20T16:09:37.311Z,11.70
2019-03-20T16:12:05.400Z,11.80
2019-03-20T16:14:33.402Z,11.90
2019-03-20T16:17:01.739Z,11.90
2019-03-20T16:19:29.354Z,11.70
2019-03-20T16:21:57.347Z,11.60
2019-03-20T16:24:25.339Z,11.50
2019-03-20T16:26:55.371Z,11.40
2019-03-20T16:29:22.751Z,11.30
2019-03-20T16:31:50.782Z,11.30
2019-03-20T16:34:18.370Z,11.20
2019-03-20T16:36:46.217Z,11.20
2019-03-20T16:39:14.107Z,11.10
2019-03-20T16:41:41.794Z,11.00
2019-03-20T16:44:09.396Z,10.90
2019-03-20T16:46:37.098Z,10.90
2019-03-20T16:49:04.773Z,10.80
2019-03-20T16:51:32.750Z,10.70
2019-03-20T16:54:00.384Z,10.60
2019-03-20T16:56:28.906Z,10.50
2019-03-20T16:58:57.158Z,10.40
2019-03-20T17:01:25.106Z,10.30
2019-03-20T17:03:52.695Z,10.20
2019-03-20T17:06:20.229Z,10.10
2019-03-20T17:08:48.537Z,10.00
2019-03-20T17:11:16.125Z,9.80
2019-03-20T17:13:43.756Z,9.80
2019-03-20T17:16:11.348Z,9.70
2019-03-20T17:18:38.979Z,9.70
2019-03-20T17:21:06.614Z,9.50
2019-03-20T17:23:34.479Z,9.50
2019-03-20T17:26:02.074Z,9.40
2019-03-20T17:28:30.084Z,9.30
2019-03-20T17:30:57.667Z,9.20
2019-03-20T17:33:25.632Z,9.10
2019-03-20T17:35:53.244Z,9.00
2019-03-20T17:38:20.954Z,9.00
2019-03-20T17:40:48.586Z,8.90
2019-03-20T17:43:16.235Z,8.80
2019-03-20T17:45:44.174Z,8.70
2019-03-20T17:48:12.296Z,8.60
2019-03-20T17:50:39.964Z,8.50
2019-03-20T17:53:07.935Z,8.50
2019-03-20T17:55:35.407Z,8.40
2019-03-20T17:58:03.326Z,8.30
2019-03-20T18:00:36.119Z,8.20
2019-03-20T18:03:04.044Z,8.10
2019-03-20T18:05:31.870Z,8.00
2019-03-20T18:08:00.461Z,7.90
2019-03-20T18:10:28.061Z,7.80
2019-03-20T18:12:55.683Z,7.70
2019-03-20T18:15:23.685Z,7.60
2019-03-20T18:17:51.280Z,7.60
2019-03-20T18:20:19.204Z,7.50
2019-03-20T18:22:46.878Z,7.30
2019-03-20T18:25:14.764Z,7.30
2019-03-20T18:27:42.377Z,7.20
2019-03-20T18:30:15.976Z,7.10
2019-03-20T18:32:44.266Z,7.00
2019-03-20T18:35:12.316Z,7.00
2019-03-20T18:37:40.200Z,6.90
2019-03-20T18:40:09.285Z,6.80
2019-03-20T18:42:36.867Z,6.60
2019-03-20T18:45:05.128Z,6.60
2019-03-20T18:47:33.002Z,6.50
2019-03-20T18:50:00.583Z,6.30
2019-03-20T18:52:28.179Z,6.20
2019-03-20T18:54:56.259Z,6.10
2019-03-20T18:57:24.562Z,6.00
2019-03-20T18:59:52.194Z,5.90
2019-03-20T19:02:20.127Z,5.80
2019-03-20T19:04:47.738Z,5.80
2019-03-20T19:07:15.490Z,5.80
2019-03-20T19:09:43.427Z,5.80
2019-03-20T19:12:11.294Z,5.80
2019-03-20T19:14:39.243Z,5.70
2019-03-20T19:17:06.734Z,5.60
2019-03-20T19:19:34.696Z,5.50
2019-03-20T19:22:03.720Z,5.40
2019-03-20T19:24:31.601Z,5.50
2019-03-20T19:26:59.178Z,5.50
2019-03-20T19:29:27.069Z,5.40
2019-03-20T19:31:55.837Z,5.40
2019-03-20T19:34:24.575Z,5.30
2019-03-20T19:36:52.579Z,5.30
2019-03-20T19:39:20.428Z,5.20
2019-03-20T19:41:48.000Z,5.20
2019-03-20T19:44:15.873Z,5.20
2019-03-20T19:46:43.477Z,5.20
2019-03-20T19:49:11.071Z,5.20
2019-03-20T19:51:38.641Z,5.30
2019-03-20T19:54:06.522Z,5.30
2019-03-20T19:56:34.827Z,5.20
2019-03-20T19:59:02.423Z,5.20
2019-03-20T20:01:29.979Z,5.10
2019-03-20T20:03:57.624Z,5.10
2019-03-20T20:06:25.571Z,5.10
2019-03-20T20:08:53.420Z,5.10
2019-03-20T20:11:21.001Z,5.10
2019-03-20T20:13:48.796Z,5.00
2019-03-20T20:16:16.711Z,5.00
2019-03-20T20:18:44.671Z,5.00
2019-03-20T20:21:12.614Z,5.00
2019-03-20T20:23:40.216Z,4.90
2019-03-20T20:26:07.837Z,4.80
2019-03-20T20:28:35.494Z,4.80
2019-03-20T20:31:03.100Z,4.80
2019-03-20T20:33:30.937Z,4.80
2019-03-20T20:35:58.842Z,4.80
2019-03-20T20:38:26.756Z,4.80
2019-03-20T20:40:54.342Z,4.80
2019-03-20T20:43:22.249Z,4.80
2019-03-20T20:45:50.774Z,4.70
2019-03-20T20:48:18.987Z,4.60
2019-03-20T20:50:46.969Z,4.50
2019-03-20T20:53:14.505Z,4.40
2019-03-20T20:55:42.001Z,4.40
2019-03-20T20:58:09.569Z,4.40
2019-03-20T21:00:37.494Z,4.40
2019-03-20T21:03:05.052Z,4.40
2019-03-20T21:05:32.612Z,4.50
2019-03-20T21:08:00.452Z,4.40
2019-03-20T21:10:31.413Z,4.40
2019-03-20T21:12:59.617Z,4.30
2019-03-20T21:15:57.097Z,4.30
2019-03-20T21:19:13.593Z,4.10
2019-03-20T21:22:17.221Z,4.10
2019-03-20T21:24:45.262Z,4.20
2019-03-20T21:27:51.680Z,4.10
2019-03-20T21:30:53.399Z,4.20
2019-03-20T21:33:43.062Z,4.20
2019-03-20T21:37:04.232Z,4.10
2019-03-20T21:39:32.392Z,4.10
2019-03-20T21:42:29.004Z,4.20
2019-03-20T21:45:25.443Z,4.10
2019-03-20T21:47:53.552Z,4.10
2019-03-20T21:51:09.264Z,4.00
2019-03-20T21:54:17.212Z,3.90
2019-03-20T21:56:51.938Z,3.80
2019-03-20T22:00:05.020Z,3.70
2019-03-20T22:02:42.664Z,3.70
2019-03-20T22:05:27.812Z,3.70
2019-03-20T22:07:57.312Z,3.60
2019-03-20T22:11:08.246Z,3.50
2019-03-20T22:13:46.065Z,3.50
2019-03-20T22:17:16.481Z,3.60
2019-03-20T22:20:27.624Z,3.70
2019-03-20T22:23:36.751Z,3.70
2019-03-20T22:26:47.952Z,3.60
2019-03-20T22:29:23.128Z,3.40
2019-03-20T22:32:23.995Z,3.30
2019-03-20T22:35:22.456Z,3.30
2019-03-20T22:37:50.942Z,3.40
2019-03-20T22:40:55.534Z,3.40
2019-03-20T22:43:37.234Z,3.40
2019-03-20T22:46:46.593Z,3.30
2019-03-20T22:49:55.123Z,3.10
2019-03-20T22:53:05.761Z,2.80
2019-03-20T22:56:18.162Z,2.70
2019-03-20T22:58:46.646Z,2.60
2019-03-20T23:01:45.355Z,2.50
2019-03-20T23:04:18.393Z,2.60
2019-03-20T23:06:46.550Z,2.80
2019-03-20T23:09:15.013Z,2.70
2019-03-20T23:11:43.488Z,2.70
2019-03-20T23:14:12.821Z,2.60
2019-03-20T23:16:40.975Z,2.60
2019-03-20T23:19:09.764Z,2.60
2019-03-20T23:21:37.951Z,2.50
2019-03-20T23:24:06.782Z,2.40
2019-03-20T23:26:35.260Z,2.40
2019-03-20T23:29:03.829Z,2.50
2019-03-20T23:31:32.293Z,2.60
2019-03-20T23:34:01.078Z,2.60
2019-03-20T23:36:29.443Z,2.60
2019-03-20T23:38:57.944Z,2.40
2019-03-20T23:41:26.496Z,2.30
2019-03-20T23:43:55.365Z,2.10
2019-03-20T23:46:23.688Z,2.00
2019-03-20T23:48:58.178Z,1.90
2019-03-20T23:51:26.320Z,1.80
2019-03-20T23:53:55.402Z,1.90
2019-03-20T23:56:24.861Z,1.90
2019-03-20T23:58:53.296Z,1.80
